首页
METAR-TAF:

METAR-TAF

机场 :

伊萨菲厄泽, 冰岛

纬度: 66-03-29N, 经度: 23-08-07W, 海拔: 2米

当前天气观测

该预报发布于9小时和59分钟前的17:00 UTC
风速11节,风向东转东北
温度 14°C
湿度 55%
气压 1002 hPa
能见度10公里或以上
少量云层高于6000英尺

METAR: BIIS 131700Z 06011KT 9999 FEW060 14/05 Q1002

时间: 02:59 (02:59 UTC)

预报

该预报发布于10小时和59分钟前的16:00 UTC
预报有效从13日的 17点(UTC)到 13日的 20点(UTC)
风速8节,风向东北
能见度10公里或以上
1500米以下无云,无积雨云

TAF: BIIS 131600Z 1317/1320 05008KT CAVOK

超过4000个机场的气象观测和天气预报(METAR&TAF报告)。

可查询的气象台以黄色和红色小点在地图上表示。

将鼠标移到小点上方,可查看气象台名称。

然后点击查看天气观测和预报。

如需切换地图:点击带黑十字的绿色按钮放大地图;点击带横线的绿色按钮缩小地图;或者点击绿色箭头查看邻近地区的地图。


METAR-TAF: